Time;durP1;ratioP1;P1;durP2;ratioP2;P2;SDS_P1;SDS_P2;PMS_P1;PMS_P2;Temp;Humidity;BMP_temperature;BMP_pressure;BME280_temperature;BME280_humidity;BME280_pressure;Samples;Min_cycle;Max_cycle;Signal;HPM_P1;HPM_P2
2022/05/31 00:00:14;;;;;;;;;8.75;5.25;;;;;17.39;40.05;101037.13;2453667;27;45222;-80
2022/05/31 00:01:27;;;;;;;;;4.00;4.00;;;;;17.38;40.27;101038.09;2457813;27;45464;-80
2022/05/31 00:02:38;;;;;;;;;3.75;3.75;;;;;17.39;40.40;101034.47;2460833;27;45164;-80
2022/05/31 00:03:48;;;;;;;;;5.00;5.00;;;;;17.40;40.77;101038.88;2452894;27;45313;-80
2022/05/31 00:04:59;;;;;;;;;4.00;3.50;;;;;17.38;40.17;101036.31;2451203;27;45235;-80
2022/05/31 00:06:09;;;;;;;;;4.00;3.00;;;;;17.37;40.70;101031.91;2450963;27;45286;-80
2022/05/31 00:07:20;;;;;;;;;5.25;4.25;;;;;17.36;40.75;101040.81;2455154;27;44775;-80
2022/05/31 00:08:32;;;;;;;;;6.50;4.50;;;;;17.37;41.06;101031.06;2458234;27;48371;-80
2022/05/31 00:09:43;;;;;;;;;4.00;3.25;;;;;17.38;40.72;101038.09;2458901;27;44707;-80
2022/05/31 00:10:54;;;;;;;;;6.00;3.75;;;;;17.35;40.97;101036.47;2450834;27;45497;-80
2022/05/31 00:12:06;;;;;;;;;4.00;3.00;;;;;17.38;41.12;101038.97;2459817;27;44655;-80
2022/05/31 00:13:16;;;;;;;;;3.50;3.00;;;;;17.37;40.35;101039.91;2456602;27;46230;-80
2022/05/31 00:14:27;;;;;;;;;4.75;4.50;;;;;17.35;41.16;101031.16;2452534;27;45314;-80
2022/05/31 00:15:38;;;;;;;;;3.25;3.25;;;;;17.37;41.03;101039.03;2457787;27;45256;-80
2022/05/31 00:16:48;;;;;;;;;4.50;3.00;;;;;17.36;40.23;101037.34;2460010;27;45303;-80
2022/05/31 00:17:58;;;;;;;;;3.75;3.75;;;;;17.35;40.01;101035.59;2454662;27;47981;-80
2022/05/31 00:19:09;;;;;;;;;3.50;2.50;;;;;17.36;40.54;101029.38;2459996;27;45451;-80
2022/05/31 00:20:20;;;;;;;;;5.25;4.50;;;;;17.33;40.72;101027.75;2460438;27;46579;-80
2022/05/31 00:22:16;;;;;;;;;3.00;3.00;;;;;17.34;40.99;101025.91;2459897;27;45285;-80
2022/05/31 00:23:27;;;;;;;;;4.75;4.00;;;;;17.31;40.77;101019.84;2454039;27;48245;-80
2022/05/31 00:24:39;;;;;;;;;4.75;4.00;;;;;17.31;40.54;101022.50;2462614;27;45259;-80
2022/05/31 00:25:49;;;;;;;;;4.00;2.25;;;;;17.30;40.51;101022.59;2456412;27;46166;-80
2022/05/31 00:27:02;;;;;;;;;3.00;3.00;;;;;17.29;40.50;101024.38;2457740;27;44937;-80
2022/05/31 00:28:13;;;;;;;;;3.75;3.75;;;;;17.28;40.60;101017.38;2460313;27;45472;-80
2022/05/31 00:29:23;;;;;;;;;3.75;2.25;;;;;17.28;41.17;101012.06;2454042;27;45292;-80
2022/05/31 00:30:34;;;;;;;;;3.50;2.75;;;;;17.29;40.84;101012.91;2459268;27;45394;-80
2022/05/31 00:31:47;;;;;;;;;2.50;2.50;;;;;17.28;41.08;101011.22;2458748;27;44728;-80
2022/05/31 00:32:58;;;;;;;;;5.00;3.00;;;;;17.28;41.34;101017.38;2459837;27;45527;-80
2022/05/31 00:34:11;;;;;;;;;4.00;3.00;;;;;17.28;41.27;101017.38;2459236;27;45187;-80
2022/05/31 00:35:25;;;;;;;;;3.50;3.00;;;;;17.27;41.19;101020.97;2453789;27;45266;-80
2022/05/31 00:36:38;;;;;;;;;3.00;3.00;;;;;17.25;41.04;101011.38;2449898;27;44764;-80
2022/05/31 00:37:48;;;;;;;;;2.50;2.50;;;;;17.24;40.58;101017.63;2450156;27;46173;-80
2022/05/31 00:38:59;;;;;;;;;3.25;3.25;;;;;17.24;40.97;101018.47;2458952;27;44640;-80
2022/05/31 00:40:11;;;;;;;;;2.75;2.75;;;;;17.23;41.08;101024.75;2459739;27;45477;-80
2022/05/31 00:41:24;;;;;;;;;3.00;3.00;;;;;17.21;40.98;101019.50;2455691;27;45685;-80
2022/05/31 00:42:57;;;;;;;;;3.25;2.25;;;;;17.21;41.65;101024.81;2450455;27;47363;-80
2022/05/31 00:44:11;;;;;;;;;5.00;3.00;;;;;17.20;41.34;101019.59;2445715;28;45321;-80
2022/05/31 00:45:40;;;;;;;;;2.00;2.00;;;;;17.20;40.98;101027.56;2451362;27;46709;-80
2022/05/31 00:46:54;;;;;;;;;4.50;3.25;;;;;17.19;40.97;101028.50;2452977;27;45250;-80
2022/05/31 00:48:09;;;;;;;;;4.50;3.00;;;;;17.19;41.43;101026.72;2457152;27;46339;-80
2022/05/31 00:49:37;;;;;;;;;5.00;2.00;;;;;17.17;41.41;101017.97;2460288;27;44610;-80
2022/05/31 00:51:00;;;;;;;;;2.75;2.75;;;;;17.17;41.42;101025.09;2460656;27;45273;-80
2022/05/31 00:52:19;;;;;;;;;2.75;2.25;;;;;17.17;41.64;101033.03;2460499;27;45175;-80
2022/05/31 00:53:38;;;;;;;;;2.00;2.00;;;;;17.14;41.43;101028.72;2459312;27;46200;-80
2022/05/31 00:54:54;;;;;;;;;4.00;3.00;;;;;17.15;41.15;101026.94;2460306;27;45177;-80
2022/05/31 00:56:09;;;;;;;;;2.00;2.00;;;;;17.14;40.62;101026.06;2458905;27;47019;-80
2022/05/31 00:57:20;;;;;;;;;2.00;2.00;;;;;17.13;40.88;101032.34;2460078;27;45255;-80
2022/05/31 00:58:40;;;;;;;;;2.75;2.75;;;;;17.13;41.13;101023.53;2459074;27;45205;-80
2022/05/31 00:59:55;;;;;;;;;3.00;2.00;;;;;17.09;40.58;101023.69;2458012;27;45201;-80
2022/05/31 01:01:10;;;;;;;;;6.00;3.00;;;;;17.10;40.40;101025.41;2459227;27;47236;-80
2022/05/31 01:02:21;;;;;;;;;2.25;2.00;;;;;17.07;40.80;101025.56;2459932;27;45446;-80
2022/05/31 01:03:37;;;;;;;;;2.25;2.25;;;;;17.08;40.98;101035.28;2452528;27;46908;-80
2022/05/31 01:04:57;;;;;;;;;4.00;2.00;;;;;17.06;41.00;101028.31;2450590;27;45250;-80
2022/05/31 01:06:10;;;;;;;;;3.00;2.25;;;;;17.05;41.24;101027.47;2452642;27;46411;-80
2022/05/31 01:07:21;;;;;;;;;2.75;2.75;;;;;17.05;41.41;101022.16;2460393;27;45250;-80
2022/05/31 01:08:34;;;;;;;;;4.00;3.00;;;;;17.05;41.55;101024.81;2451154;27;46505;-80
2022/05/31 01:09:45;;;;;;;;;5.50;1.75;;;;;17.03;42.03;101018.72;2453004;27;45313;-80
2022/05/31 01:10:56;;;;;;;;;3.00;3.00;;;;;17.04;41.71;101019.59;2455538;27;45322;-80
2022/05/31 01:12:07;;;;;;;;;3.00;3.00;;;;;17.01;41.59;101025.94;2451309;27;44645;-80
2022/05/31 01:13:19;;;;;;;;;2.00;2.00;;;;;17.02;42.35;101018.81;2460669;27;47705;-80
2022/05/31 01:14:30;;;;;;;;;2.25;2.25;;;;;17.00;41.79;101016.25;2459212;27;45457;-80
2022/05/31 01:15:42;;;;;;;;;3.00;3.00;;;;;17.00;41.70;101013.59;2458657;27;46412;-80
2022/05/31 01:16:54;;;;;;;;;1.75;1.25;;;;;16.97;41.86;101011.97;2455994;27;45569;-81
2022/05/31 01:18:05;;;;;;;;;4.75;2.50;;;;;16.95;42.06;101015.63;2452283;27;45402;-80
2022/05/31 01:19:55;;;;;;;;;2.00;2.00;;;;;16.96;41.81;101017.38;2452183;27;45341;-80
2022/05/31 01:20:45;;;;;;;;;3.25;2.00;;;;;16.93;42.24;101012.22;2451876;27;46818;-80
2022/05/31 01:21:56;;;;;;;;;2.25;2.25;;;;;16.92;41.81;101015.81;2452447;27;45491;-80
2022/05/31 01:23:11;;;;;;;;;2.50;2.50;;;;;16.91;41.97;101014.09;2452113;27;46518;-80
2022/05/31 01:24:23;;;;;;;;;2.00;2.00;;;;;16.88;41.79;101012.47;2452342;27;45296;-80
2022/05/31 01:25:48;;;;;;;;;2.00;2.00;;;;;16.88;42.42;101020.44;2460138;27;47147;-80
2022/05/31 01:27:08;;;;;;;;;3.25;2.00;;;;;16.85;42.44;101024.13;2451839;27;45329;-80
2022/05/31 01:28:47;;;;;;;;;1.75;1.75;;;;;16.84;42.00;101022.41;2451851;27;45216;-80
2022/05/31 01:30:00;;;;;;;;;1.00;1.00;;;;;16.83;42.02;101026.00;2452198;27;45231;-80
2022/05/31 01:31:18;;;;;;;;;4.00;2.75;;;;;16.81;42.57;101021.72;2459328;27;46092;-80
2022/05/31 01:32:29;;;;;;;;;2.00;2.00;;;;;16.77;42.51;101013.06;2454397;27;45229;-80
2022/05/31 01:33:48;;;;;;;;;1.75;1.75;;;;;16.76;42.31;101014.88;2457129;27;48371;-80
2022/05/31 01:35:08;;;;;;;;;2.00;2.00;;;;;16.74;42.35;101015.91;2445528;28;45190;-80
2022/05/31 01:36:32;;;;;;;;;5.50;2.25;;;;;16.74;42.86;101018.56;2453093;27;45421;-80
2022/05/31 01:38:00;;;;;;;;;3.00;3.00;;;;;16.73;42.99;101014.19;2461479;27;45311;-80
2022/05/31 01:39:21;;;;;;;;;2.00;2.00;;;;;16.72;42.77;101009.78;2452078;28;45487;-80
2022/05/31 01:40:42;;;;;;;;;2.00;2.00;;;;;16.70;42.76;101009.03;2451987;27;45243;-80
2022/05/31 01:41:57;;;;;;;;;2.00;2.00;;;;;16.68;42.87;101018.88;2454977;27;46177;-80
2022/05/31 01:43:07;;;;;;;;;2.00;2.00;;;;;16.65;42.78;101011.94;2456982;27;44722;-80
2022/05/31 01:44:22;;;;;;;;;2.75;2.75;;;;;16.65;42.39;101009.28;2451643;27;46227;-80
2022/05/31 01:46:01;;;;;;;;;2.00;2.00;;;;;16.63;42.64;101017.34;2452122;27;44559;-80
2022/05/31 01:47:12;;;;;;;;;4.25;2.75;;;;;16.63;42.18;101017.34;2458572;27;47236;-80
2022/05/31 01:48:25;;;;;;;;;3.75;2.75;;;;;16.62;42.35;101018.25;2453978;27;45302;-80
2022/05/31 01:49:41;;;;;;;;;3.00;3.00;;;;;16.60;42.73;101009.53;2457901;27;46364;-80
2022/05/31 01:50:51;;;;;;;;;3.50;2.25;;;;;16.60;42.84;101016.63;2455912;27;44563;-80
2022/05/31 01:52:03;;;;;;;;;4.75;2.50;;;;;16.59;43.21;101013.16;2459025;27;46925;-80
2022/05/31 01:53:15;;;;;;;;;3.00;2.00;;;;;16.58;43.07;101014.06;2463020;27;44802;-81
2022/05/31 01:54:27;;;;;;;;;4.00;3.00;;;;;16.58;43.21;101014.06;2459533;27;45409;-80
2022/05/31 01:55:40;;;;;;;;;3.50;3.00;;;;;16.57;43.02;101017.66;2452170;27;44748;-80
2022/05/31 01:56:55;;;;;;;;;2.50;2.50;;;;;16.56;43.16;101010.66;2451861;27;46461;-80
2022/05/31 01:58:12;;;;;;;;;3.00;3.00;;;;;16.53;43.23;101013.47;2452593;27;45574;-80
2022/05/31 01:59:24;;;;;;;;;2.75;2.00;;;;;16.53;43.29;101011.66;2461716;27;46296;-80
2022/05/31 02:00:35;;;;;;;;;3.00;3.00;;;;;16.54;43.43;101020.50;2460227;27;45571;-80
2022/05/31 02:01:46;;;;;;;;;3.50;3.00;;;;;16.53;43.84;101026.72;2460163;27;46564;-80
2022/05/31 02:03:01;;;;;;;;;3.00;2.00;;;;;16.50;43.76;101022.44;2459493;27;44783;-80
2022/05/31 02:04:16;;;;;;;;;1.25;1.25;;;;;16.50;43.57;101014.47;2464326;27;47844;-80
2022/05/31 02:05:26;;;;;;;;;3.00;2.25;;;;;16.49;43.99;101023.41;2457841;27;45507;-80
2022/05/31 02:06:39;;;;;;;;;3.00;3.00;;;;;16.50;43.67;101026.88;2459693;27;48064;-80
2022/05/31 02:07:55;;;;;;;;;2.00;2.00;;;;;16.49;42.99;101023.41;2465262;27;44596;-80
2022/05/31 02:09:09;;;;;;;;;2.00;2.00;;;;;16.49;43.14;101030.50;2450902;28;47505;-80
2022/05/31 02:10:21;;;;;;;;;3.00;3.00;;;;;16.47;43.11;101029.72;2450991;27;45256;-80
2022/05/31 02:11:32;;;;;;;;;2.50;2.00;;;;;16.45;42.72;101031.56;2451360;27;45568;-80
2022/05/31 02:12:43;;;;;;;;;2.00;2.00;;;;;16.45;43.23;101026.28;2452060;27;45317;-80
2022/05/31 02:13:53;;;;;;;;;3.00;3.00;;;;;16.44;43.34;101024.56;2451410;27;45516;-80
2022/05/31 02:15:04;;;;;;;;;6.00;3.00;;;;;16.42;43.65;101027.31;2455880;27;45180;-80
2022/05/31 02:16:15;;;;;;;;;2.25;2.25;;;;;16.41;43.84;101031.75;2460457;27;47708;-80
2022/05/31 02:17:25;;;;;;;;;2.00;2.00;;;;;16.42;44.14;101029.97;2457251;27;45258;-80
2022/05/31 02:20:05;;;;;;;;;2.00;2.00;;;;;16.41;43.96;101034.41;2451936;27;45263;-80
2022/05/31 02:21:16;;;;;;;;;2.25;2.25;;;;;16.42;44.13;101029.97;2456437;27;45333;-80
2022/05/31 02:22:27;;;;;;;;;3.00;2.00;;;;;16.41;44.23;101029.13;2460037;27;45294;-80
2022/05/31 02:23:37;;;;;;;;;1.00;1.00;;;;;16.41;43.96;101025.59;2450400;28;48211;-80
2022/05/31 02:24:48;;;;;;;;;3.00;3.00;;;;;16.41;44.10;101025.59;2449808;27;45242;-80
2022/05/31 02:25:59;;;;;;;;;2.25;1.00;;;;;16.40;44.19;101027.38;2460623;27;46481;-80
2022/05/31 02:27:10;;;;;;;;;3.50;3.50;;;;;16.40;43.29;101027.38;2460724;27;45226;-80
2022/05/31 02:28:20;;;;;;;;;3.75;3.75;;;;;16.41;43.97;101020.28;2455555;27;48069;-80
2022/05/31 02:29:34;;;;;;;;;2.75;2.75;;;;;16.42;44.42;101027.31;2452949;27;45456;-80
2022/05/31 02:30:44;;;;;;;;;3.25;3.25;;;;;16.41;44.29;101018.50;2453144;27;46432;-80
2022/05/31 02:32:00;;;;;;;;;2.00;2.00;;;;;16.41;44.63;101028.25;2457763;27;45509;-80
2022/05/31 02:33:12;;;;;;;;;3.00;2.50;;;;;16.41;44.34;101028.25;2455980;27;46518;-80
2022/05/31 02:34:24;;;;;;;;;3.00;3.00;;;;;16.42;44.36;101032.63;2461587;27;45238;-80
2022/05/31 02:35:35;;;;;;;;;3.75;3.00;;;;;16.40;44.54;101027.38;2461294;27;45389;-80
2022/05/31 02:36:47;;;;;;;;;2.25;2.25;;;;;16.39;44.69;101028.34;2455869;27;45393;-80
2022/05/31 02:37:58;;;;;;;;;2.00;2.00;;;;;16.40;44.72;101027.38;2451213;27;45452;-80
2022/05/31 02:39:09;;;;;;;;;3.00;3.00;;;;;16.40;44.61;101023.88;2451592;27;45220;-80
2022/05/31 02:40:19;;;;;;;;;2.50;2.50;;;;;16.38;44.61;101029.25;2451168;27;45358;-80
2022/05/31 02:41:31;;;;;;;;;5.50;3.00;;;;;16.40;44.71;101031.81;2457746;27;45172;-80
2022/05/31 02:42:42;;;;;;;;;3.00;2.00;;;;;16.39;44.91;101023.03;2451690;27;45468;-80
2022/05/31 02:43:52;;;;;;;;;4.00;4.00;;;;;16.38;44.86;101026.63;2451438;27;44750;-80
2022/05/31 02:45:05;;;;;;;;;2.75;2.75;;;;;16.39;44.85;101024.81;2459256;27;46344;-80
2022/05/31 02:46:15;;;;;;;;;4.00;3.00;;;;;16.38;45.11;101029.25;2458499;27;45495;-80
2022/05/31 02:47:26;;;;;;;;;5.50;2.00;;;;;16.38;44.85;101029.25;2451458;28;45450;-80
2022/05/31 02:48:36;;;;;;;;;2.25;2.00;;;;;16.38;44.72;101023.97;2457020;27;45286;-80
2022/05/31 02:49:47;;;;;;;;;3.00;3.00;;;;;16.37;44.64;101024.88;2457556;27;45459;-80
2022/05/31 02:50:58;;;;;;;;;2.25;2.25;;;;;16.36;44.50;101028.50;2453116;27;45270;-80
2022/05/31 02:52:08;;;;;;;;;2.75;2.00;;;;;16.37;44.74;101032.84;2450615;27;47292;-80
2022/05/31 02:53:18;;;;;;;;;3.00;2.50;;;;;16.37;44.96;101032.84;2451017;27;45248;-80
2022/05/31 02:54:29;;;;;;;;;4.75;3.50;;;;;16.36;44.76;101031.16;2451550;27;48030;-80
2022/05/31 02:55:39;;;;;;;;;3.50;3.25;;;;;16.36;44.98;101028.50;2460595;27;44784;-80
2022/05/31 02:56:50;;;;;;;;;2.25;2.25;;;;;16.36;45.16;101028.50;2460376;27;46047;-80
2022/05/31 02:58:00;;;;;;;;;3.00;3.00;;;;;16.35;45.15;101031.22;2452687;27;45504;-80
2022/05/31 02:59:11;;;;;;;;;3.00;3.00;;;;;16.35;44.89;101024.13;2451253;27;46456;-80
2022/05/31 03:00:22;;;;;;;;;3.00;3.00;;;;;16.34;45.21;101029.50;2460158;27;44636;-80
2022/05/31 03:01:35;;;;;;;;;4.00;3.50;;;;;16.34;45.23;101029.50;2450182;28;47402;-80
2022/05/31 03:02:45;;;;;;;;;3.00;3.00;;;;;16.33;45.29;101026.00;2450845;28;45203;-80
2022/05/31 03:03:56;;;;;;;;;4.00;4.00;;;;;16.33;45.66;101025.13;2452526;27;45307;-80
2022/05/31 03:05:07;;;;;;;;;3.50;3.50;;;;;16.33;45.96;101026.00;2460513;27;44724;-80
2022/05/31 03:06:18;;;;;;;;;2.25;2.25;;;;;16.31;45.70;101022.56;2457089;27;46284;-80
2022/05/31 03:07:28;;;;;;;;;2.75;2.75;;;;;16.30;45.68;101023.50;2458535;27;45288;-80
2022/05/31 03:08:39;;;;;;;;;2.50;2.00;;;;;16.29;45.69;101016.50;2450490;28;47054;-80
2022/05/31 03:09:49;;;;;;;;;3.00;3.00;;;;;16.29;45.53;101020.00;2446602;28;45346;-80
2022/05/31 03:11:01;;;;;;;;;3.50;3.00;;;;;16.30;45.42;101020.84;2452970;27;45840;-80
2022/05/31 03:12:15;;;;;;;;;2.00;2.00;;;;;16.29;45.67;101024.47;2451371;27;45231;-80
2022/05/31 03:13:28;;;;;;;;;3.00;3.00;;;;;16.29;45.83;101021.81;2450794;27;45412;-80
2022/05/31 03:14:43;;;;;;;;;3.50;3.00;;;;;16.27;45.60;101011.25;2455052;27;45216;-80
2022/05/31 03:16:01;;;;;;;;;3.75;3.00;;;;;16.26;45.81;101009.56;2451960;27;45483;-80
2022/05/31 03:17:31;;;;;;;;;3.75;3.50;;;;;16.25;45.87;101014.97;2451540;27;45429;-80
2022/05/31 03:18:50;;;;;;;;;3.75;3.00;;;;;16.25;45.70;101015.78;2458835;27;47009;-80
2022/05/31 03:20:11;;;;;;;;;4.00;3.75;;;;;16.22;46.03;101005.38;2460701;27;45446;-80
2022/05/31 03:21:29;;;;;;;;;4.00;2.75;;;;;16.24;45.70;101014.09;2459936;27;47691;-80
2022/05/31 03:22:49;;;;;;;;;4.50;3.00;;;;;16.22;45.88;101009.81;2456936;27;45314;-80
2022/05/31 03:24:06;;;;;;;;;6.50;2.50;;;;;16.22;45.75;101007.16;2451297;27;46706;-80
2022/05/31 03:25:21;;;;;;;;;2.25;2.25;;;;;16.20;45.68;101010.72;2451275;28;45272;-80
2022/05/31 03:26:32;;;;;;;;;4.00;3.00;;;;;16.20;45.79;101005.44;2455992;27;46834;-80
2022/05/31 03:27:44;;;;;;;;;3.75;3.75;;;;;16.18;45.94;101009.97;2453310;27;45383;-80
2022/05/31 03:28:54;;;;;;;;;3.50;3.50;;;;;16.20;45.68;101013.38;2454223;27;46548;-80
2022/05/31 03:30:06;;;;;;;;;5.00;2.50;;;;;16.18;45.26;101009.09;2459988;27;45176;-80
2022/05/31 03:31:17;;;;;;;;;2.00;2.00;;;;;16.18;45.37;101011.75;2460090;27;45362;-80
2022/05/31 03:32:27;;;;;;;;;4.00;3.25;;;;;16.17;45.16;101018.84;2457300;27;45194;-80
2022/05/31 03:33:38;;;;;;;;;3.00;3.00;;;;;16.16;45.11;101021.59;2457825;27;48498;-81
2022/05/31 03:34:49;;;;;;;;;5.00;3.00;;;;;16.15;45.02;101018.06;2451084;27;45242;-80
2022/05/31 03:36:00;;;;;;;;;4.25;3.00;;;;;16.14;45.10;101016.38;2452296;27;46275;-80
2022/05/31 03:37:10;;;;;;;;;3.50;3.00;;;;;16.15;44.91;101023.38;2459692;27;44570;-80
2022/05/31 03:38:21;;;;;;;;;4.25;3.75;;;;;16.14;44.99;101021.69;2460261;27;45352;-80
2022/05/31 03:39:31;;;;;;;;;6.00;5.25;;;;;16.15;45.05;101020.72;2459993;27;44751;-80
2022/05/31 03:41:15;;;;;;;;;4.25;3.00;;;;;16.16;44.77;101014.50;2459362;27;45498;-80
2022/05/31 03:42:18;;;;;;;;;3.00;3.00;;;;;16.15;44.61;101012.75;2456587;27;45211;-80
2022/05/31 03:43:31;;;;;;;;;3.25;3.00;;;;;16.17;44.67;101015.34;2458241;27;46598;-80
2022/05/31 03:44:42;;;;;;;;;3.50;3.00;;;;;16.17;45.68;101010.88;2455337;27;45139;-80
2022/05/31 03:45:52;;;;;;;;;3.00;3.00;;;;;16.18;45.34;101014.41;2459847;27;45275;-80
2022/05/31 03:47:04;;;;;;;;;3.00;3.00;;;;;16.17;45.44;101021.50;2451336;27;45492;-80
2022/05/31 03:48:14;;;;;;;;;3.75;2.00;;;;;16.18;45.61;101019.69;2450222;28;47340;-80
2022/05/31 03:49:25;;;;;;;;;4.00;4.00;;;;;16.17;45.71;101016.19;2457475;27;45348;-80
2022/05/31 03:50:38;;;;;;;;;4.50;4.00;;;;;16.17;45.91;101023.31;2460144;27;47063;-80
2022/05/31 03:51:49;;;;;;;;;3.50;3.50;;;;;16.15;45.86;101020.72;2450419;28;45278;-80
2022/05/31 03:53:00;;;;;;;;;3.75;3.25;;;;;16.15;45.48;101017.22;2452466;27;45392;-80
2022/05/31 03:54:10;;;;;;;;;3.00;3.00;;;;;16.13;45.45;101019.94;2460170;27;45155;-80
2022/05/31 03:55:21;;;;;;;;;5.25;3.00;;;;;16.12;45.46;101017.38;2455106;27;46956;-80
2022/05/31 03:56:31;;;;;;;;;5.00;5.00;;;;;16.13;45.65;101021.72;2451975;27;44645;-80
2022/05/31 03:57:41;;;;;;;;;3.75;3.75;;;;;16.12;45.83;101022.69;2455680;27;45532;-80
2022/05/31 03:58:52;;;;;;;;;4.75;4.00;;;;;16.10;45.94;101017.44;2451082;27;45186;-80
2022/05/31 04:00:02;;;;;;;;;7.25;5.25;;;;;16.08;45.62;101022.84;2453362;27;47871;-80
2022/05/31 04:01:13;;;;;;;;;5.00;5.00;;;;;16.07;45.86;101020.28;2453779;27;44780;-80
2022/05/31 04:02:23;;;;;;;;;1.00;1.00;;;;;16.06;45.76;101024.72;2458608;27;45616;-80
2022/05/31 04:03:34;;;;;;;;;6.50;5.00;;;;;16.06;45.77;101026.50;2450944;27;45225;-80
2022/05/31 04:04:44;;;;;;;;;4.00;4.00;;;;;16.05;45.70;101022.16;2450888;27;45319;-80
2022/05/31 04:05:54;;;;;;;;;4.50;4.50;;;;;16.05;46.32;101028.28;2451119;27;45247;-80
2022/05/31 04:07:05;;;;;;;;;4.00;3.75;;;;;16.05;46.29;101030.13;2451991;27;46708;-80
2022/05/31 04:08:15;;;;;;;;;4.25;3.50;;;;;16.04;46.22;101025.69;2453223;27;46820;-80
2022/05/31 04:09:26;;;;;;;;;6.00;4.00;;;;;16.03;46.44;101027.50;2452783;27;47358;-80
2022/05/31 04:10:38;;;;;;;;;4.00;4.00;;;;;16.02;46.29;101027.56;2447600;28;44704;-80
2022/05/31 04:11:48;;;;;;;;;5.75;4.25;;;;;16.02;46.23;101023.13;2455009;27;45281;-81
2022/05/31 04:12:59;;;;;;;;;6.50;5.00;;;;;16.01;45.93;101017.91;2450976;27;45197;-80
2022/05/31 04:14:09;;;;;;;;;3.50;3.50;;;;;15.97;46.00;101018.06;2450342;27;45204;-80
2022/05/31 04:15:19;;;;;;;;;5.00;5.00;;;;;15.97;45.92;101015.44;2451219;27;45275;-80
2022/05/31 04:16:30;;;;;;;;;5.00;4.25;;;;;15.97;46.00;101011.91;2450855;27;46185;-80
2022/05/31 04:17:40;;;;;;;;;4.00;3.25;;;;;15.95;45.83;101011.97;2450243;28;45332;-80
2022/05/31 04:18:50;;;;;;;;;4.25;4.00;;;;;15.95;46.11;101008.50;2453325;27;46453;-80
2022/05/31 04:20:01;;;;;;;;;4.00;4.00;;;;;15.94;46.03;101009.41;2455206;27;44622;-80
2022/05/31 04:21:16;;;;;;;;;3.50;3.25;;;;;15.93;46.00;101013.84;2452633;27;47143;-80
2022/05/31 04:22:27;;;;;;;;;7.25;5.00;;;;;15.93;46.39;101016.50;2456932;27;45262;-80
2022/05/31 04:25:07;;;;;;;;;4.00;4.00;;;;;15.92;46.73;101016.59;2450859;28;45645;-80
2022/05/31 04:26:17;;;;;;;;;5.25;4.00;;;;;15.90;46.31;101008.69;2452634;27;45497;-80
2022/05/31 04:27:28;;;;;;;;;4.75;4.75;;;;;15.91;47.02;101013.06;2459835;27;45277;-80
2022/05/31 04:28:39;;;;;;;;;4.00;4.00;;;;;15.89;46.96;101012.31;2460616;27;47007;-80
2022/05/31 04:29:49;;;;;;;;;4.00;2.25;;;;;15.89;46.75;101009.66;2464663;27;44617;-80
2022/05/31 04:30:59;;;;;;;;;5.50;4.00;;;;;15.88;46.69;101007.09;2454730;27;45470;-80
2022/05/31 04:32:11;;;;;;;;;5.75;5.75;;;;;15.88;47.17;101007.94;2454196;27;45457;-80
2022/05/31 04:33:21;;;;;;;;;5.00;5.00;;;;;15.86;46.90;101004.50;2454255;27;45528;-80
2022/05/31 04:34:32;;;;;;;;;5.25;5.25;;;;;15.85;47.26;101000.16;2450898;27;45141;-80
2022/05/31 04:35:42;;;;;;;;;4.50;4.00;;;;;15.85;46.88;101005.47;2450923;27;46583;-80
2022/05/31 04:36:52;;;;;;;;;6.75;5.75;;;;;15.84;47.03;101009.03;2458372;27;45609;-80
2022/05/31 04:38:03;;;;;;;;;6.00;5.00;;;;;15.85;46.92;101008.09;2459873;27;46214;-80
2022/05/31 04:39:13;;;;;;;;;6.50;5.00;;;;;15.84;46.80;101003.72;2460636;27;44696;-80
2022/05/31 04:40:24;;;;;;;;;3.50;3.50;;;;;15.83;46.93;101008.16;2450443;27;45451;-80
2022/05/31 04:41:34;;;;;;;;;5.50;4.75;;;;;15.84;47.20;101009.03;2453799;27;45391;-80
2022/05/31 04:42:45;;;;;;;;;4.00;4.00;;;;;15.82;47.39;101009.13;2449906;28;47124;-80
2022/05/31 04:43:57;;;;;;;;;6.75;4.25;;;;;15.82;47.51;101008.25;2454446;27;45271;-80
2022/05/31 04:45:08;;;;;;;;;5.75;5.00;;;;;15.81;47.39;101006.53;2447753;27;47847;-80
2022/05/31 04:46:21;;;;;;;;;5.00;5.00;;;;;15.82;47.29;101014.41;2451960;27;45457;-80
2022/05/31 04:47:32;;;;;;;;;4.25;4.25;;;;;15.81;47.51;101009.19;2452633;27;45532;-80
2022/05/31 04:48:43;;;;;;;;;5.50;5.00;;;;;15.80;47.56;101007.47;2451783;28;45144;-80
2022/05/31 04:49:53;;;;;;;;;3.00;3.00;;;;;15.80;47.53;101018.94;2461122;27;45409;-80
2022/05/31 04:51:03;;;;;;;;;6.75;6.00;;;;;15.81;47.53;101017.13;2456781;27;45355;-80
2022/05/31 04:52:14;;;;;;;;;5.00;5.00;;;;;15.80;47.18;101015.44;2452797;27;47041;-81
2022/05/31 04:53:24;;;;;;;;;4.75;4.75;;;;;15.79;46.75;101021.66;2452203;27;45307;-80
2022/05/31 04:54:35;;;;;;;;;5.00;4.00;;;;;15.79;46.95;101021.66;2457862;27;45632;-80
2022/05/31 04:55:45;;;;;;;;;4.50;4.25;;;;;15.78;46.70;101019.94;2462277;27;45367;-80
2022/05/31 04:56:59;;;;;;;;;7.00;4.00;;;;;15.77;46.85;101020.88;2462146;27;46207;-80
2022/05/31 04:58:10;;;;;;;;;6.00;4.25;;;;;15.78;46.50;101023.44;2461048;27;45365;-80
2022/05/31 04:59:20;;;;;;;;;6.50;4.75;;;;;15.80;46.96;101028.69;2454347;27;45245;-80
2022/05/31 05:00:31;;;;;;;;;5.00;5.00;;;;;15.80;47.03;101032.19;2452674;27;45177;-80
2022/05/31 05:01:41;;;;;;;;;7.50;5.00;;;;;15.82;47.56;101024.16;2455773;27;46510;-80
2022/05/31 05:02:52;;;;;;;;;6.25;6.00;;;;;15.83;47.44;101028.50;2456698;27;44784;-80
2022/05/31 05:04:02;;;;;;;;;5.00;5.00;;;;;15.85;47.19;101024.00;2452476;27;45218;-80
2022/05/31 05:05:13;;;;;;;;;5.00;4.75;;;;;15.85;47.16;101016.06;2452445;27;45376;-80
2022/05/31 05:06:23;;;;;;;;;5.25;5.25;;;;;15.86;46.85;101025.69;2452578;27;45648;-80
2022/05/31 05:07:34;;;;;;;;;6.25;6.25;;;;;15.88;47.20;101025.66;2457885;27;45186;-80
2022/05/31 05:08:45;;;;;;;;;7.25;6.00;;;;;15.89;47.38;101033.50;2452138;27;45369;-80
2022/05/31 05:09:55;;;;;;;;;5.25;5.25;;;;;15.89;47.47;101028.22;2451458;28;45171;-80
2022/05/31 05:11:09;;;;;;;;;7.75;5.75;;;;;15.89;47.87;101033.50;2453066;27;45492;-80
2022/05/31 05:12:19;;;;;;;;;5.00;4.25;;;;;15.90;47.89;101034.38;2464403;27;45268;-80
2022/05/31 05:13:31;;;;;;;;;6.50;4.25;;;;;15.91;48.01;101028.97;2450999;28;47831;-80
2022/05/31 05:14:41;;;;;;;;;7.00;5.75;;;;;15.90;47.86;101024.59;2460681;27;44702;-80
2022/05/31 05:15:54;;;;;;;;;7.25;5.25;;;;;15.93;47.64;101024.44;2456828;27;45276;-80
2022/05/31 05:17:04;;;;;;;;;5.25;5.00;;;;;15.94;47.75;101034.13;2452336;27;45444;-80
2022/05/31 05:18:15;;;;;;;;;6.25;4.75;;;;;15.93;47.86;101032.41;2451182;27;47134;-80
2022/05/31 05:19:25;;;;;;;;;10.50;7.50;;;;;15.93;48.37;101040.34;2451793;27;45314;-80
2022/05/31 05:20:38;;;;;;;;;3.00;3.00;;;;;15.95;48.51;101042.94;2451631;27;45510;-80
2022/05/31 05:21:48;;;;;;;;;4.00;4.00;;;;;15.95;48.36;101045.59;2452246;27;45204;-80
2022/05/31 05:22:59;;;;;;;;;6.00;5.00;;;;;15.95;48.39;101048.25;2451977;27;46408;-80
2022/05/31 05:24:09;;;;;;;;;5.25;5.25;;;;;15.95;48.81;101045.59;2452119;27;45238;-80
2022/05/31 05:25:19;;;;;;;;;6.25;5.25;;;;;15.96;48.47;101044.66;2452092;27;45435;-80
2022/05/31 05:26:30;;;;;;;;;5.75;5.75;;;;;15.96;48.51;101044.66;2458575;27;44710;-80
2022/05/31 05:27:40;;;;;;;;;6.75;6.50;;;;;15.96;48.31;101047.28;2461093;27;48222;-80
2022/05/31 05:31:52;;;;;;;;;7.25;5.25;;;;;15.98;48.99;101056.88;2454350;27;44891;-80
2022/05/31 05:33:03;;;;;;;;;6.00;6.00;;;;;16.00;49.33;101050.66;2451239;28;48256;-80
2022/05/31 05:34:13;;;;;;;;;8.25;5.25;;;;;16.01;49.43;101052.34;2451934;27;45462;-80
2022/05/31 05:35:24;;;;;;;;;6.50;6.50;;;;;16.03;49.33;101050.47;2454986;27;47160;-80
2022/05/31 05:36:34;;;;;;;;;7.50;5.75;;;;;16.03;49.43;101056.66;2462090;27;45209;-80
2022/05/31 05:37:44;;;;;;;;;8.00;5.50;;;;;16.06;49.44;101058.31;2460923;27;46255;-80
2022/05/31 05:38:55;;;;;;;;;5.25;5.00;;;;;16.06;49.56;101051.22;2461147;27;45339;-80
2022/05/31 05:40:06;;;;;;;;;6.50;6.50;;;;;16.09;49.09;101058.16;2461555;27;46540;-80
2022/05/31 05:41:18;;;;;;;;;8.50;7.25;;;;;16.12;49.46;101062.47;2454726;27;45500;-80
2022/05/31 05:42:29;;;;;;;;;7.75;7.00;;;;;16.13;49.59;101058.84;2453688;27;47042;-80
2022/05/31 05:43:40;;;;;;;;;6.00;6.00;;;;;16.13;49.60;101053.56;2454979;27;45358;-80